Time;durP1;ratioP1;P1;durP2;ratioP2;P2;SDS_P1;SDS_P2;PMS_P1;PMS_P2;Temp;Humidity;BMP_temperature;BMP_pressure;BME280_temperature;BME280_humidity;BME280_pressure;Samples;Min_cycle;Max_cycle;Signal;HPM_P1;HPM_P2
2022/01/01 00:01:36;;;;;;;;;14.25;13.25;;;;;21.95;45.39;102176.38;5070351;28;50930;-47
2022/01/01 00:04:01;;;;;;;;;12.50;12.50;;;;;21.93;45.40;102186.75;5068192;28;51066;-49
2022/01/01 00:06:27;;;;;;;;;14.50;14.00;;;;;21.90;45.59;102183.34;5065104;28;51152;-50
2022/01/01 00:08:52;;;;;;;;;16.25;12.75;;;;;21.89;45.78;102180.78;5068314;27;51077;-49
2022/01/01 00:11:18;;;;;;;;;13.50;9.50;;;;;21.87;45.91;102178.22;5062620;28;51077;-50
2022/01/01 00:13:43;;;;;;;;;13.50;13.50;;;;;21.87;45.45;102191.16;5061030;28;50959;-47
2022/01/01 00:16:09;;;;;;;;;15.75;11.75;;;;;21.84;45.55;102189.66;5064188;28;51525;-47
2022/01/01 00:18:41;;;;;;;;;13.00;11.50;;;;;21.82;45.79;102182.63;5064406;28;50983;-52
2022/01/01 00:21:06;;;;;;;;;15.25;14.75;;;;;21.81;45.51;102181.78;5058590;28;51239;-48
2022/01/01 00:23:33;;;;;;;;;13.00;11.00;;;;;21.79;46.02;102186.66;5060159;27;50927;-49
2022/01/01 00:25:58;;;;;;;;;11.50;10.75;;;;;21.79;45.73;102194.94;5066154;27;51315;-49
2022/01/01 00:28:24;;;;;;;;;13.25;13.25;;;;;21.76;45.91;102189.78;5058229;28;51401;-48
2022/01/01 00:30:49;;;;;;;;;14.50;12.00;;;;;21.74;45.68;102186.38;5065535;28;51143;-50
2022/01/01 00:33:14;;;;;;;;;14.25;12.25;;;;;21.74;46.05;102188.28;5065641;28;51071;-51
2022/01/01 00:35:40;;;;;;;;;14.50;13.75;;;;;21.72;45.95;102182.97;5062486;28;50946;-50
2022/01/01 00:38:06;;;;;;;;;16.25;15.75;;;;;21.71;45.41;102178.50;5057504;28;51132;-51
2022/01/01 00:40:31;;;;;;;;;16.00;14.75;;;;;21.70;45.66;102184.22;5063647;28;51235;-49
2022/01/01 00:42:57;;;;;;;;;15.00;12.50;;;;;21.69;45.50;102183.38;5062714;28;51093;-45
2022/01/01 00:45:23;;;;;;;;;15.50;13.75;;;;;21.68;45.55;102180.81;5065285;28;52212;-46
2022/01/01 00:47:48;;;;;;;;;14.75;12.50;;;;;21.67;45.89;102182.69;5065448;27;51066;-46
2022/01/01 00:50:14;;;;;;;;;15.00;12.25;;;;;21.65;45.96;102184.81;5064020;28;51061;-50
2022/01/01 00:52:39;;;;;;;;;16.25;14.00;;;;;21.64;45.46;102191.38;5064359;28;51056;-52
2022/01/01 00:55:05;;;;;;;;;14.25;12.75;;;;;21.63;45.61;102200.69;5069772;28;52555;-51
2022/01/01 00:57:31;;;;;;;;;14.75;12.00;;;;;21.63;45.66;102192.44;5069397;28;51108;-50
2022/01/01 00:59:56;;;;;;;;;13.75;13.00;;;;;21.61;46.10;102186.25;5068255;28;50923;-47
2022/01/01 01:02:21;;;;;;;;;12.25;12.25;;;;;21.60;45.53;102184.56;5065888;28;51212;-47
2022/01/01 01:04:47;;;;;;;;;18.75;14.50;;;;;21.60;45.72;102192.84;5065951;28;52008;-49
2022/01/01 01:07:12;;;;;;;;;13.50;13.50;;;;;21.59;46.03;102182.84;5063054;28;51093;-47
2022/01/01 01:09:38;;;;;;;;;16.00;14.75;;;;;21.57;45.96;102177.53;5064701;28;51261;-49
2022/01/01 01:12:03;;;;;;;;;17.00;15.75;;;;;21.56;45.73;102172.19;5065445;28;51368;-51
2022/01/01 01:14:31;;;;;;;;;14.50;13.50;;;;;21.55;45.59;102181.53;5072447;28;51763;-52
2022/01/01 01:16:56;;;;;;;;;13.00;12.00;;;;;21.54;45.84;102177.06;5061868;28;50974;-49
2022/01/01 01:19:22;;;;;;;;;16.25;12.00;;;;;21.53;45.65;102183.63;5069152;28;51191;-49
2022/01/01 01:21:49;;;;;;;;;16.00;13.75;;;;;21.52;46.18;102182.78;5069649;28;51190;-45
2022/01/01 01:24:15;;;;;;;;;15.25;13.25;;;;;21.50;46.14;102171.09;5064175;28;51810;-49
2022/01/01 01:26:47;;;;;;;;;15.75;12.00;;;;;21.49;45.99;102169.41;5075783;27;51610;-49
2022/01/01 01:29:12;;;;;;;;;17.50;12.00;;;;;21.48;46.01;102175.97;5065857;28;51206;-48
2022/01/01 01:31:38;;;;;;;;;12.25;11.00;;;;;21.49;45.63;102174.06;5066237;28;50955;-49
2022/01/01 01:34:03;;;;;;;;;16.25;15.25;;;;;21.47;45.98;102173.41;5067816;28;51934;-48
2022/01/01 01:36:28;;;;;;;;;19.25;15.00;;;;;21.45;45.98;102173.59;5065636;28;50882;-50
2022/01/01 01:38:54;;;;;;;;;15.75;12.25;;;;;21.45;45.99;102173.59;5065303;28;50911;-47
2022/01/01 01:41:19;;;;;;;;;11.75;11.00;;;;;21.43;46.13;102170.19;5066938;28;51143;-49
2022/01/01 01:43:46;;;;;;;;;18.50;16.00;;;;;21.43;46.04;102172.94;5057986;28;51904;-48
2022/01/01 01:46:13;;;;;;;;;13.75;12.25;;;;;21.42;45.65;102181.41;5075678;28;51624;-50
2022/01/01 01:48:38;;;;;;;;;14.25;12.50;;;;;21.42;46.20;102178.66;5071359;28;52525;-50
2022/01/01 01:51:04;;;;;;;;;13.75;12.25;;;;;21.40;45.71;102176.09;5068448;28;51020;-50
2022/01/01 01:53:30;;;;;;;;;16.00;13.75;;;;;21.38;46.06;102169.94;5065230;28;52219;-51
2022/01/01 01:55:58;;;;;;;;;14.75;12.75;;;;;21.39;45.72;102173.53;5070053;28;51110;-50
2022/01/01 01:58:24;;;;;;;;;15.75;14.50;;;;;21.38;46.04;102180.97;5072664;28;50997;-52
2022/01/01 02:03:17;;;;;;;;;15.25;13.75;;;;;21.36;45.69;102177.50;5068516;28;51044;-51
2022/01/01 02:05:45;;;;;;;;;14.75;13.50;;;;;21.36;45.83;102176.66;5068221;28;51102;-49
2022/01/01 02:08:12;;;;;;;;;15.25;15.25;;;;;21.35;46.03;102173.06;5067365;28;51042;-48
2022/01/01 02:10:37;;;;;;;;;12.25;11.50;;;;;21.34;45.78;102176.88;5070515;28;51287;-50
2022/01/01 02:13:26;;;;;;;;;14.00;12.00;;;;;21.33;46.00;102173.25;5061747;28;50907;-47
2022/01/01 02:18:18;;;;;;;;;14.50;11.25;;;;;21.32;46.04;102176.22;5069511;28;51328;-50
2022/01/01 02:20:49;;;;;;;;;13.25;13.00;;;;;21.30;46.16;102175.56;5064523;28;52509;-45
2022/01/01 02:23:27;;;;;;;;;16.75;13.50;;;;;21.29;45.76;102177.47;5063964;27;51870;-47
2022/01/01 02:25:56;;;;;;;;;15.00;13.50;;;;;21.28;45.98;102175.75;5073346;27;51328;-47
2022/01/01 02:28:22;;;;;;;;;16.50;15.50;;;;;21.28;46.14;102166.63;5069101;27;51236;-49
2022/01/01 02:30:49;;;;;;;;;15.25;13.00;;;;;21.26;45.96;102158.56;5063443;28;50891;-51
2022/01/01 02:33:14;;;;;;;;;14.25;10.75;;;;;21.26;46.04;102160.47;5064796;27;51864;-50
2022/01/01 02:35:40;;;;;;;;;17.25;12.25;;;;;21.25;45.80;102165.06;5072675;28;51381;-48
2022/01/01 02:38:07;;;;;;;;;15.50;15.00;;;;;21.25;45.61;102158.72;5067568;28;51336;-49
2022/01/01 02:40:32;;;;;;;;;13.00;12.75;;;;;21.24;46.00;102149.59;5069973;28;51130;-49
2022/01/01 02:42:58;;;;;;;;;12.25;12.25;;;;;21.23;46.15;102153.41;5065282;28;52103;-49
2022/01/01 02:45:23;;;;;;;;;13.25;13.25;;;;;21.22;46.18;102148.94;5066804;28;51249;-48
2022/01/01 02:47:48;;;;;;;;;15.00;12.75;;;;;21.22;46.15;102140.69;5062198;28;51398;-50
2022/01/01 02:50:14;;;;;;;;;13.50;12.50;;;;;21.20;45.69;102142.78;5067860;28;51381;-49
2022/01/01 02:52:39;;;;;;;;;12.50;11.50;;;;;21.20;46.15;102142.78;5063715;28;52727;-50
2022/01/01 02:55:06;;;;;;;;;16.25;13.50;;;;;21.19;46.23;102143.84;5060532;28;51136;-48
2022/01/01 02:57:32;;;;;;;;;14.25;13.00;;;;;21.19;46.00;102152.09;5067904;28;51196;-50
2022/01/01 02:59:58;;;;;;;;;15.75;11.50;;;;;21.18;46.14;102153.16;5059472;27;51152;-50
2022/01/01 03:02:23;;;;;;;;;16.00;14.25;;;;;21.17;45.56;102145.09;5065685;28;52730;-47
2022/01/01 03:04:49;;;;;;;;;15.50;13.00;;;;;21.16;46.27;102149.75;5061388;28;51188;-51
2022/01/01 03:07:15;;;;;;;;;16.75;13.75;;;;;21.17;46.21;102150.59;5066940;28;51263;-46
2022/01/01 03:09:40;;;;;;;;;12.50;12.50;;;;;21.16;46.16;102159.91;5072933;28;52427;-52
2022/01/01 03:12:08;;;;;;;;;15.75;14.25;;;;;21.14;45.79;102157.31;5067056;28;52012;-48
2022/01/01 03:14:34;;;;;;;;;14.00;13.00;;;;;21.15;45.83;102163.69;5068368;27;51094;-49
2022/01/01 03:16:59;;;;;;;;;13.25;12.00;;;;;21.15;45.78;102153.53;5065482;28;51076;-50
2022/01/01 03:19:25;;;;;;;;;17.25;16.75;;;;;21.14;45.77;102157.31;5064740;28;51229;-51
2022/01/01 03:21:50;;;;;;;;;15.25;14.25;;;;;21.13;45.83;102155.63;5063666;28;51663;-51
2022/01/01 03:24:16;;;;;;;;;18.25;14.25;;;;;21.13;46.24;102163.88;5066802;28;50934;-49
2022/01/01 03:26:41;;;;;;;;;14.50;12.50;;;;;21.12;45.91;102167.69;5080523;27;51174;-49
2022/01/01 03:29:07;;;;;;;;;15.75;15.00;;;;;21.11;46.31;102163.22;5067404;27;51051;-48
2022/01/01 03:31:32;;;;;;;;;19.50;16.00;;;;;21.12;45.73;102164.09;5063943;28;51509;-49
2022/01/01 03:33:58;;;;;;;;;15.00;13.00;;;;;21.10;45.72;102161.53;5065265;28;51182;-50
2022/01/01 03:36:25;;;;;;;;;13.75;12.25;;;;;21.09;45.77;102159.81;5064776;28;51268;-47
2022/01/01 03:38:50;;;;;;;;;17.75;14.75;;;;;21.07;45.82;102153.66;5066445;28;51006;-47
2022/01/01 03:41:15;;;;;;;;;15.75;12.50;;;;;21.08;46.14;102158.13;5061125;28;51088;-50
2022/01/01 03:43:41;;;;;;;;;11.50;11.00;;;;;21.07;46.12;102156.41;5062104;27;51133;-49
2022/01/01 03:46:06;;;;;;;;;15.75;12.25;;;;;21.07;46.31;102150.91;5060341;28;51453;-46
2022/01/01 03:48:31;;;;;;;;;15.25;14.75;;;;;21.06;45.91;102143.69;5067042;27;51091;-48
2022/01/01 03:50:57;;;;;;;;;17.00;14.25;;;;;21.06;45.71;102142.84;5064226;28;51921;-49
2022/01/01 03:53:24;;;;;;;;;12.50;12.50;;;;;21.05;46.14;102142.00;5064564;28;52419;-50
2022/01/01 03:55:49;;;;;;;;;15.25;13.25;;;;;21.05;46.50;102144.75;5067273;28;51176;-53
2022/01/01 03:58:15;;;;;;;;;14.75;13.50;;;;;21.04;46.04;102143.00;5074119;28;51105;-50
2022/01/01 04:00:40;;;;;;;;;13.25;13.25;;;;;21.05;46.50;102142.00;5061672;28;51001;-49
2022/01/01 04:03:11;;;;;;;;;11.25;8.50;;;;;21.05;46.41;102153.00;5063293;28;50903;-52
2022/01/01 04:05:40;;;;;;;;;16.25;13.50;;;;;21.04;46.32;102159.53;5067098;27;51220;-50
2022/01/01 04:08:06;;;;;;;;;11.00;9.75;;;;;21.03;46.20;102150.44;5064428;27;51039;-46
2022/01/01 04:10:32;;;;;;;;;12.50;12.50;;;;;21.03;46.53;102144.06;5071805;28;51875;-49
2022/01/01 04:13:02;;;;;;;;;12.25;11.50;;;;;21.02;45.98;102142.34;5068389;28;51063;-52
2022/01/01 04:15:29;;;;;;;;;12.50;12.50;;;;;21.01;46.53;102138.75;5061867;28;51291;-49
2022/01/01 04:17:58;;;;;;;;;16.50;12.25;;;;;21.01;46.24;102141.50;5063799;28;51426;-49
2022/01/01 04:20:24;;;;;;;;;14.50;11.25;;;;;21.00;46.11;102145.31;5068594;28;51223;-50
2022/01/01 04:22:51;;;;;;;;;10.25;9.75;;;;;21.00;45.95;102144.47;5059229;28;51330;-50
2022/01/01 04:25:17;;;;;;;;;17.25;14.00;;;;;20.99;46.45;102140.00;5068840;28;51164;-48
2022/01/01 04:27:42;;;;;;;;;13.50;12.00;;;;;20.98;46.44;102149.31;5076102;27;51362;-47
2022/01/01 04:30:08;;;;;;;;;14.00;11.00;;;;;20.97;46.41;102139.34;5067533;28;51703;-49
2022/01/01 04:32:33;;;;;;;;;14.00;9.25;;;;;20.95;46.02;102130.44;5066563;28;51195;-46
2022/01/01 04:34:59;;;;;;;;;11.25;10.00;;;;;20.95;45.88;102124.94;5077731;28;51852;-44
2022/01/01 04:37:24;;;;;;;;;16.75;13.50;;;;;20.95;45.91;102128.53;5068770;28;51051;-49
2022/01/01 04:39:54;;;;;;;;;12.75;10.25;;;;;20.94;46.43;102124.03;5066363;28;51893;-51
2022/01/01 04:42:20;;;;;;;;;13.75;11.75;;;;;20.94;46.25;102134.22;5061121;28;51256;-49
2022/01/01 04:44:45;;;;;;;;;14.00;12.50;;;;;20.93;46.62;102130.59;5073890;28;51157;-50
2022/01/01 04:47:10;;;;;;;;;11.25;10.25;;;;;20.93;46.24;102133.34;5071592;28;51784;-46
2022/01/01 04:49:36;;;;;;;;;11.50;11.50;;;;;20.92;46.42;102126.16;5066871;28;51073;-46
2022/01/01 04:52:01;;;;;;;;;14.25;10.25;;;;;20.91;46.38;102129.94;5072249;28;51261;-47
2022/01/01 04:54:27;;;;;;;;;12.00;10.00;;;;;20.90;46.42;102132.91;5073579;28;51407;-48
2022/01/01 04:56:52;;;;;;;;;12.75;11.00;;;;;20.90;45.98;102133.75;5066604;28;51169;-50
2022/01/01 04:59:18;;;;;;;;;13.25;12.00;;;;;20.90;46.31;102127.41;5069514;28;51150;-47
2022/01/01 05:01:44;;;;;;;;;12.50;12.00;;;;;20.89;46.22;102125.69;5066743;28;51139;-46
2022/01/01 05:04:10;;;;;;;;;11.50;11.50;;;;;20.89;46.49;102126.53;5065264;28;51348;-48
2022/01/01 05:06:35;;;;;;;;;11.00;11.00;;;;;20.89;45.89;102125.69;5067367;28;51233;-47
2022/01/01 05:09:02;;;;;;;;;13.25;11.00;;;;;20.89;46.02;102144.97;5066401;28;51801;-50
2022/01/01 05:11:27;;;;;;;;;16.00;13.00;;;;;20.88;46.29;102143.28;5071120;28;51310;-49
2022/01/01 05:13:53;;;;;;;;;11.00;9.25;;;;;20.86;46.32;102146.22;5068619;28;51136;-51
2022/01/01 05:16:19;;;;;;;;;10.00;9.00;;;;;20.86;46.43;102143.47;5066209;28;51150;-46
2022/01/01 05:18:46;;;;;;;;;12.50;12.25;;;;;20.86;46.03;102146.22;5066374;28;52365;-46
2022/01/01 05:21:12;;;;;;;;;10.75;9.25;;;;;20.85;46.30;102152.78;5071037;28;51162;-47
2022/01/01 05:23:38;;;;;;;;;12.25;12.25;;;;;20.86;46.12;102153.63;5064918;28;51160;-48
2022/01/01 05:26:03;;;;;;;;;12.25;11.25;;;;;20.85;45.99;102151.94;5076498;27;51311;-44
2022/01/01 05:28:29;;;;;;;;;9.50;8.75;;;;;20.84;46.35;102150.19;5068127;28;51096;-50
2022/01/01 05:30:54;;;;;;;;;14.75;14.00;;;;;20.83;46.39;102141.06;5073514;28;51122;-47
2022/01/01 05:33:20;;;;;;;;;12.50;10.25;;;;;20.82;46.32;102142.13;5062283;28;51041;-51
2022/01/01 05:35:45;;;;;;;;;7.75;7.75;;;;;20.82;46.59;102146.78;5069536;28;51162;-48
2022/01/01 05:38:10;;;;;;;;;13.00;10.25;;;;;20.82;46.17;102138.53;5065029;28;51982;-47
2022/01/01 05:40:36;;;;;;;;;10.75;10.75;;;;;20.82;46.59;102135.75;5067455;28;52062;-48
2022/01/01 05:43:01;;;;;;;;;8.00;8.00;;;;;20.81;46.47;102134.91;5061290;28;51331;-49
2022/01/01 05:45:27;;;;;;;;;12.00;10.75;;;;;20.81;45.95;102134.06;5065273;28;51112;-45
2022/01/01 05:47:52;;;;;;;;;9.00;7.50;;;;;20.79;46.32;102128.75;5071163;28;51140;-45
2022/01/01 05:50:20;;;;;;;;;11.50;9.75;;;;;20.79;46.37;102117.75;5060205;27;52285;-50
2022/01/01 05:52:45;;;;;;;;;10.50;9.50;;;;;20.78;46.34;102128.94;5063278;28;51264;-49
2022/01/01 05:55:11;;;;;;;;;14.50;10.50;;;;;20.78;46.44;102123.44;5073053;28;51068;-49
2022/01/01 05:57:36;;;;;;;;;10.50;8.75;;;;;20.77;46.36;102124.50;5063520;28;51796;-48
2022/01/01 06:00:06;;;;;;;;;13.00;8.25;;;;;20.77;45.95;102128.09;5067920;28;51165;-46
2022/01/01 06:02:31;;;;;;;;;15.00;11.25;;;;;20.75;45.99;102117.28;5068731;27;51166;-50
2022/01/01 06:04:56;;;;;;;;;12.00;9.75;;;;;20.75;46.38;102119.19;5065283;28;51087;-48
2022/01/01 06:07:22;;;;;;;;;9.75;9.00;;;;;20.75;46.07;102124.69;5065520;28;51805;-44
2022/01/01 06:09:49;;;;;;;;;10.50;7.25;;;;;20.74;46.31;102118.34;5067387;28;51119;-50
2022/01/01 06:12:15;;;;;;;;;11.00;10.00;;;;;20.74;46.24;102115.56;5069845;28;51115;-49
2022/01/01 06:14:40;;;;;;;;;10.50;9.25;;;;;20.74;46.23;102123.00;5061296;28;51044;-50
2022/01/01 06:17:05;;;;;;;;;8.00;8.00;;;;;20.73;45.88;102116.59;5065625;28;51215;-51
2022/01/01 06:19:31;;;;;;;;;9.50;8.00;;;;;20.71;45.92;102115.94;5065177;28;51191;-49
2022/01/01 06:21:56;;;;;;;;;9.25;9.25;;;;;20.71;46.08;102124.19;5058896;28;51033;-51
2022/01/01 06:24:21;;;;;;;;;10.25;8.75;;;;;20.71;46.15;102117.84;5068452;28;51159;-51
2022/01/01 06:26:47;;;;;;;;;10.50;8.75;;;;;20.70;46.45;102121.66;5067007;27;51336;-49
2022/01/01 06:29:12;;;;;;;;;8.75;8.75;;;;;20.70;46.28;102125.25;5070517;28;51137;-55
2022/01/01 06:31:37;;;;;;;;;10.25;9.50;;;;;20.71;46.43;102129.72;5066291;28;51070;-51
2022/01/01 06:34:03;;;;;;;;;8.00;8.00;;;;;20.71;46.23;102126.97;5066877;28;51237;-46
2022/01/01 06:36:28;;;;;;;;;11.50;9.75;;;;;20.71;46.33;102124.19;5072483;28;51102;-49
2022/01/01 06:38:53;;;;;;;;;7.25;7.00;;;;;20.70;46.07;102122.50;5070110;28;51411;-48
2022/01/01 06:41:19;;;;;;;;;8.25;7.25;;;;;20.69;46.06;102120.78;5060489;28;51243;-50
2022/01/01 06:43:45;;;;;;;;;9.75;8.00;;;;;20.68;46.16;102113.59;5066520;28;51301;-48
2022/01/01 06:46:10;;;;;;;;;10.75;10.00;;;;;20.68;45.99;102118.25;5061073;28;51883;-46
2022/01/01 06:48:35;;;;;;;;;10.75;9.00;;;;;20.68;46.52;102115.50;5065723;28;51113;-51
2022/01/01 06:51:01;;;;;;;;;6.75;6.00;;;;;20.67;46.65;102119.28;5065435;28;51307;-49
2022/01/01 06:53:26;;;;;;;;;8.50;8.50;;;;;20.67;46.44;102113.78;5061190;28;51105;-47
2022/01/01 06:55:52;;;;;;;;;10.75;9.00;;;;;20.67;45.96;102111.88;5070840;28;51110;-47
2022/01/01 06:58:17;;;;;;;;;7.50;7.25;;;;;20.67;46.11;102108.28;5065770;28;51235;-49
2022/01/01 07:00:43;;;;;;;;;9.50;8.00;;;;;20.66;46.38;102109.31;5058620;28;50966;-49
2022/01/01 07:03:08;;;;;;;;;6.75;5.50;;;;;20.66;46.24;102112.09;5062795;28;50965;-48
2022/01/01 07:05:34;;;;;;;;;9.25;7.00;;;;;20.64;45.80;102112.28;5064439;28;52086;-48
2022/01/01 07:07:59;;;;;;;;;7.00;7.00;;;;;20.64;46.36;102109.53;5065897;28;51726;-48
2022/01/01 07:10:25;;;;;;;;;6.25;5.25;;;;;20.64;46.48;102111.44;5073232;28;51202;-51
2022/01/01 07:12:50;;;;;;;;;10.00;8.50;;;;;20.63;46.42;102110.53;5074823;28;51333;-48
2022/01/01 07:15:16;;;;;;;;;7.25;7.25;;;;;20.63;46.23;102117.94;5059514;28;51029;-50
2022/01/01 07:17:41;;;;;;;;;7.25;7.25;;;;;20.62;46.35;102117.09;5069260;28;51153;-46
2022/01/01 07:20:08;;;;;;;;;7.25;7.25;;;;;20.62;46.00;102128.09;5067924;28;51179;-46
2022/01/01 07:22:44;;;;;;;;;10.50;10.00;;;;;20.61;46.21;102128.31;5068918;28;51290;-48
2022/01/01 07:25:11;;;;;;;;;12.50;12.50;;;;;20.60;45.05;102126.59;5060680;28;51098;-50
2022/01/01 07:27:38;;;;;;;;;17.00;16.75;;;;;20.56;44.83;102125.28;5072084;27;51412;-48
2022/01/01 07:30:05;;;;;;;;;17.75;13.25;;;;;20.52;44.69;102130.31;5062565;28;51099;-51
2022/01/01 07:32:30;;;;;;;;;13.25;12.25;;;;;20.46;44.85;102128.34;5065312;28;51122;-49
2022/01/01 07:34:55;;;;;;;;;14.25;12.50;;;;;20.42;44.72;102132.47;5060323;27;51180;-48
2022/01/01 07:37:21;;;;;;;;;18.25;14.25;;;;;20.37;44.59;102132.19;5067476;28;51093;-51
2022/01/01 07:39:46;;;;;;;;;11.75;11.25;;;;;20.32;44.40;102129.16;5069058;28;51289;-46
2022/01/01 07:42:14;;;;;;;;;14.50;13.75;;;;;20.28;44.41;102138.84;5059470;28;51374;-49
2022/01/01 07:44:42;;;;;;;;;12.75;11.50;;;;;20.21;44.24;102132.38;5063773;28;51341;-49
2022/01/01 07:47:07;;;;;;;;;16.00;13.00;;;;;20.16;44.14;102131.06;5066346;27;51405;-49
2022/01/01 07:49:33;;;;;;;;;12.75;12.75;;;;;20.13;43.96;102127.84;5058062;28;51187;-45
2022/01/01 07:51:58;;;;;;;;;15.50;11.50;;;;;20.08;44.53;102125.66;5064563;28;50980;-44
2022/01/01 07:54:24;;;;;;;;;13.25;12.75;;;;;20.04;44.72;102116.06;5065830;28;51858;-46
2022/01/01 07:56:49;;;;;;;;;12.00;12.00;;;;;20.03;44.25;102116.28;5066699;28;51053;-46
2022/01/01 07:59:14;;;;;;;;;12.25;9.25;;;;;20.04;44.44;102121.56;5065257;28;51382;-50
2022/01/01 08:01:40;;;;;;;;;15.00;10.00;;;;;20.10;44.54;102119.94;5060361;28;51225;-46
2022/01/01 08:04:06;;;;;;;;;10.00;10.00;;;;;20.17;44.46;102130.00;5064218;28;50993;-44
2022/01/01 08:06:32;;;;;;;;;7.00;7.00;;;;;20.25;44.22;102131.81;5068963;28;51009;-48
2022/01/01 08:08:58;;;;;;;;;9.50;8.00;;;;;20.33;44.47;102131.75;5071968;28;51334;-45
2022/01/01 08:11:24;;;;;;;;;7.50;7.50;;;;;20.41;44.57;102128.84;5073802;28;51047;-50
2022/01/01 08:13:50;;;;;;;;;8.00;8.00;;;;;20.49;44.96;102129.84;5057047;28;51941;-43
2022/01/01 08:16:15;;;;;;;;;7.25;7.25;;;;;20.58;44.86;102128.69;5065136;28;51476;-46
2022/01/01 08:18:41;;;;;;;;;8.00;5.75;;;;;20.66;44.99;102125.84;5064434;28;51873;-50
2022/01/01 08:21:06;;;;;;;;;7.00;6.50;;;;;20.74;44.56;102129.34;5064010;28;51844;-43
2022/01/01 08:23:31;;;;;;;;;8.00;7.00;;;;;20.84;44.63;102108.88;5063586;28;53331;-48
2022/01/01 08:25:58;;;;;;;;;7.75;6.75;;;;;20.92;44.46;102103.25;5066850;27;51054;-43
2022/01/01 08:28:23;;;;;;;;;6.00;5.75;;;;;20.99;45.00;102109.69;5069352;27;51586;-45
2022/01/01 08:30:49;;;;;;;;;4.00;4.00;;;;;21.01;44.68;102097.44;5071666;28;51151;-45
2022/01/01 08:33:15;;;;;;;;;6.75;6.75;;;;;21.02;44.96;102103.78;5063488;28;51873;-47
2022/01/01 08:35:40;;;;;;;;;7.25;5.25;;;;;21.01;45.10;102108.44;5059583;27;51427;-48
2022/01/01 08:38:06;;;;;;;;;8.25;7.00;;;;;21.02;45.33;102106.53;5064681;28;51219;-46
2022/01/01 08:40:32;;;;;;;;;8.25;5.50;;;;;21.02;45.42;102114.81;5064935;28;51024;-48
2022/01/01 08:42:58;;;;;;;;;5.75;5.00;;;;;21.07;45.26;102117.00;5061141;28;51140;-47
2022/01/01 08:45:24;;;;;;;;;6.50;5.50;;;;;21.09;45.39;102114.91;5064441;28;51156;-47
2022/01/01 08:47:50;;;;;;;;;9.25;5.25;;;;;21.11;45.26;102118.31;5067959;28;51342;-47
2022/01/01 08:50:15;;;;;;;;;7.00;6.00;;;;;21.09;45.54;102117.66;5064895;28;51315;-51
2022/01/01 08:52:41;;;;;;;;;6.75;6.50;;;;;21.10;45.33;102109.19;5062045;28;52030;-47
2022/01/01 08:55:07;;;;;;;;;6.75;6.75;;;;;21.12;45.31;102104.31;5064700;27;51069;-45
2022/01/01 08:57:33;;;;;;;;;6.25;6.25;;;;;21.13;45.63;102108.78;5063144;28;51115;-44
2022/01/01 09:00:02;;;;;;;;;6.50;6.50;;;;;21.15;45.29;102114.09;5063684;28;51121;-50
2022/01/01 09:02:27;;;;;;;;;8.00;7.25;;;;;21.18;45.45;102109.06;5063274;28;51220;-51
2022/01/01 09:04:52;;;;;;;;;7.25;6.00;;;;;21.24;44.83;102112.91;5076412;27;52885;-49
2022/01/01 09:07:18;;;;;;;;;7.00;5.50;;;;;21.27;44.81;102109.81;5061129;28;51490;-49
2022/01/01 09:09:44;;;;;;;;;6.00;6.00;;;;;21.28;45.14;102131.66;5062320;28;51234;-47
2022/01/01 09:12:11;;;;;;;;;7.75;6.75;;;;;21.27;44.73;102123.59;5062505;28;51977;-47
2022/01/01 09:14:37;;;;;;;;;7.50;7.50;;;;;21.25;44.60;102117.38;5062987;28;51034;-44
2022/01/01 09:17:05;;;;;;;;;7.75;7.25;;;;;21.25;45.01;102106.34;5071010;27;51606;-50
2022/01/01 09:19:30;;;;;;;;;8.75;6.00;;;;;21.28;45.09;102097.75;5064316;28;51156;-49
2022/01/01 09:21:55;;;;;;;;;8.50;7.50;;;;;21.33;44.89;102096.09;5061803;28;51765;-46
2022/01/01 09:24:21;;;;;;;;;8.75;8.00;;;;;21.38;44.74;102092.75;5069031;28;51199;-46
2022/01/01 09:26:47;;;;;;;;;6.50;6.00;;;;;21.39;44.86;102090.84;5068236;27;51192;-44
2022/01/01 09:29:12;;;;;;;;;6.75;5.00;;;;;21.39;44.62;102088.09;5067381;28;51075;-47
2022/01/01 09:31:38;;;;;;;;;8.25;8.25;;;;;21.36;44.83;102086.56;5060741;28;51989;-48
2022/01/01 09:34:05;;;;;;;;;6.50;6.00;;;;;21.35;44.17;102075.72;5068697;28;51164;-49
2022/01/01 09:36:31;;;;;;;;;9.00;6.25;;;;;21.33;44.78;102074.03;5063365;27;51231;-49
2022/01/01 09:38:56;;;;;;;;;6.25;5.75;;;;;21.31;44.24;102059.59;5067105;28;51152;-48
2022/01/01 09:41:21;;;;;;;;;6.00;6.00;;;;;21.33;44.64;102057.50;5057599;27;52795;-47
2022/01/01 09:43:48;;;;;;;;;5.50;5.50;;;;;21.39;44.58;102064.13;5064011;28;51134;-47
2022/01/01 09:46:15;;;;;;;;;7.50;6.50;;;;;21.44;44.80;102058.00;5067353;27;51188;-50
2022/01/01 09:48:40;;;;;;;;;6.25;6.25;;;;;21.47;44.36;102063.13;5076134;28;51231;-44
2022/01/01 09:51:06;;;;;;;;;5.00;5.00;;;;;21.47;44.50;102069.50;5072551;27;52584;-45
2022/01/01 09:53:33;;;;;;;;;5.25;4.75;;;;;21.45;45.09;102066.06;5066681;28;51295;-47
2022/01/01 09:56:00;;;;;;;;;8.00;5.75;;;;;21.44;44.54;102064.38;5064881;28;51169;-47
2022/01/01 09:58:31;;;;;;;;;6.00;5.25;;;;;21.42;44.99;102066.47;5075406;27;51336;-51
2022/01/01 10:00:56;;;;;;;;;5.75;5.75;;;;;21.42;44.91;102068.38;5072558;27;51103;-46
2022/01/01 10:03:32;;;;;;;;;6.00;6.00;;;;;21.46;45.20;102061.41;5066232;27;51235;-46
2022/01/01 10:06:08;;;;;;;;;7.00;7.00;;;;;21.54;45.30;102070.38;5074050;28;51058;-48
2022/01/01 10:08:36;;;;;;;;;5.00;5.00;;;;;21.58;45.31;102057.06;5065302;28;51146;-48
2022/01/01 10:11:01;;;;;;;;;7.00;5.50;;;;;21.59;45.03;102058.78;5061349;28;50924;-46
2022/01/01 10:13:34;;;;;;;;;6.75;5.75;;;;;21.57;44.91;102058.97;5066491;27;51127;-51
2022/01/01 10:16:02;;;;;;;;;6.00;6.00;;;;;21.56;45.08;102064.66;5066826;28;51913;-45
2022/01/01 10:18:32;;;;;;;;;7.50;7.00;;;;;21.53;45.46;102065.94;5060819;27;51781;-45
2022/01/01 10:20:59;;;;;;;;;4.00;4.00;;;;;21.53;45.33;102068.69;5065626;28;51755;-52
2022/01/01 10:23:28;;;;;;;;;5.00;5.00;;;;;21.55;45.51;102065.72;5060566;28;51311;-52
2022/01/01 10:29:30;;;;;;;;;5.25;3.25;;;;;21.68;45.05;102053.97;5047518;28;51158;-50
2022/01/01 10:32:02;;;;;;;;;6.00;5.25;;;;;21.70;45.72;102060.13;5064749;27;51115;-45
2022/01/01 10:34:31;;;;;;;;;8.00;6.00;;;;;21.70;45.46;102055.47;5067989;28;51140;-47
2022/01/01 10:36:56;;;;;;;;;5.00;4.75;;;;;21.70;45.92;102060.13;5069541;28;51313;-52
2022/01/01 10:39:23;;;;;;;;;7.00;5.50;;;;;21.69;45.98;102063.94;5057712;28;51228;-46
2022/01/01 10:41:48;;;;;;;;;5.00;5.00;;;;;21.68;45.94;102065.84;5060249;28;51149;-50
2022/01/01 10:44:14;;;;;;;;;8.25;6.00;;;;;21.68;45.78;102060.34;5062554;28;51297;-47
2022/01/01 10:46:41;;;;;;;;;11.00;5.25;;;;;21.68;45.95;102060.34;5067064;27;51314;-45
2022/01/01 10:49:39;;;;;;;;;6.50;4.00;;;;;21.66;45.87;102056.91;5061769;28;51436;-49
2022/01/01 10:52:23;;;;;;;;;6.25;5.25;;;;;21.65;45.76;102070.91;5062142;28;51111;-49
2022/01/01 10:54:57;;;;;;;;;6.00;4.00;;;;;21.64;46.15;102061.78;5063519;28;51156;-44
2022/01/01 10:57:37;;;;;;;;;7.50;6.50;;;;;21.63;45.68;102060.06;5059685;28;51497;-51
2022/01/01 11:00:07;;;;;;;;;7.75;5.25;;;;;21.60;45.55;102058.56;5064697;28;51251;-49
2022/01/01 11:02:34;;;;;;;;;6.75;6.00;;;;;21.59;45.64;102067.06;5061294;28;53358;-44
2022/01/01 11:05:00;;;;;;;;;6.00;5.00;;;;;21.56;45.46;102057.25;5066590;28;51781;-46
2022/01/01 11:07:27;;;;;;;;;5.50;5.25;;;;;21.55;45.87;102062.97;5073726;28;50983;-48
2022/01/01 11:09:54;;;;;;;;;8.00;7.75;;;;;21.53;45.21;102059.56;5064930;28;51279;-46
2022/01/01 11:12:21;;;;;;;;;5.75;5.75;;;;;21.52;45.84;102060.63;5065908;28;52087;-44
2022/01/01 11:14:47;;;;;;;;;6.00;6.00;;;;;21.50;45.45;102048.94;5066399;28;51311;-47
2022/01/01 11:17:13;;;;;;;;;4.75;4.75;;;;;21.49;45.45;102047.25;5066624;28;51238;-47
2022/01/01 11:19:38;;;;;;;;;5.25;5.00;;;;;21.47;45.16;102038.34;5066053;28;51058;-49
2022/01/01 11:22:04;;;;;;;;;5.25;5.25;;;;;21.45;45.89;102032.13;5065553;28;51947;-49